Terminal Aerodrome Forecast
Issued by NWS

Home | Current Version | Previous Version | Text Only | Print | Product List | Glossary Off
Versions: 1 2 3 4 5 6 7 8 9 10 11 12 13 14 15 16 17

000
FTUS43 KBIS 221613 AAA
TAFDIK
TAF AMD
KDIK 221613Z 2216/2312 32020G28KT P6SM FEW080 SCT120
     FM221700 32023G33KT P6SM FEW070 FEW250
     FM230100 31027G41KT P6SM FEW080 SCT200
     FM230300 31022G32KT P6SM SCT050 BKN100
     FM230600 31016KT P6SM BKN035=

USA.gov is the U.S. government's official web portal to all federal, state and local government web resources and services.